createdAt,value
2022-10-05T00:00:23.184Z,4.03
2022-10-05T00:02:52.429Z,4.07
2022-10-05T00:05:27.992Z,3.67
2022-10-05T00:07:58.081Z,3.93
2022-10-05T00:10:26.263Z,4.03
2022-10-05T00:12:54.182Z,3.53
2022-10-05T00:15:24.445Z,4.13
2022-10-05T00:17:52.353Z,4.10
2022-10-05T00:20:23.885Z,3.80
2022-10-05T00:22:53.380Z,4.00
2022-10-05T00:25:22.571Z,3.30
2022-10-05T00:27:56.326Z,3.70
2022-10-05T00:30:28.073Z,3.80
2022-10-05T00:32:59.457Z,3.87
2022-10-05T00:35:29.563Z,3.60
2022-10-05T00:37:57.661Z,3.57
2022-10-05T00:40:34.571Z,3.63
2022-10-05T00:43:22.575Z,3.50
2022-10-05T00:45:54.760Z,4.20
2022-10-05T00:48:26.521Z,4.20
2022-10-05T00:51:13.131Z,4.07
2022-10-05T00:53:45.206Z,3.53
2022-10-05T00:56:30.309Z,4.07
2022-10-05T00:59:07.065Z,3.83
2022-10-05T01:01:40.077Z,4.30
2022-10-05T01:04:14.585Z,3.77
2022-10-05T01:06:49.456Z,4.10
2022-10-05T01:09:23.109Z,3.80
2022-10-05T01:11:58.139Z,3.97
2022-10-05T01:14:29.388Z,3.70
2022-10-05T01:17:03.060Z,4.10
2022-10-05T01:19:45.934Z,4.03
2022-10-05T01:22:23.675Z,3.70
2022-10-05T01:25:03.851Z,4.13
2022-10-05T01:27:41.069Z,3.57
2022-10-05T01:30:13.622Z,3.37
2022-10-05T01:32:47.574Z,3.90
2022-10-05T01:35:24.607Z,3.90
2022-10-05T01:38:00.197Z,3.53
2022-10-05T01:40:35.512Z,4.50
2022-10-05T01:43:11.857Z,3.53
2022-10-05T01:45:46.944Z,4.47
2022-10-05T01:48:20.790Z,3.53
2022-10-05T01:50:55.293Z,4.30
2022-10-05T01:53:29.456Z,3.80
2022-10-05T01:56:03.793Z,3.90
2022-10-05T01:58:40.003Z,3.57
2022-10-05T02:01:11.340Z,3.73
2022-10-05T02:03:41.461Z,3.73
2022-10-05T02:06:12.711Z,4.30
2022-10-05T02:08:43.341Z,4.17
2022-10-05T02:11:13.645Z,4.07
2022-10-05T02:13:44.670Z,4.80
2022-10-05T02:16:17.791Z,3.97
2022-10-05T02:18:50.998Z,3.60
2022-10-05T02:21:20.064Z,4.73
2022-10-05T02:23:50.460Z,4.03
2022-10-05T02:26:19.009Z,4.27
2022-10-05T02:28:50.871Z,3.90
2022-10-05T02:31:22.762Z,4.50
2022-10-05T02:33:50.830Z,4.17
2022-10-05T02:36:21.837Z,3.53
2022-10-05T02:39:02.225Z,4.13
2022-10-05T02:41:39.705Z,3.77
2022-10-05T02:44:13.366Z,4.17
2022-10-05T02:46:47.005Z,4.33
2022-10-05T02:49:21.914Z,4.37
2022-10-05T02:51:54.362Z,3.77
2022-10-05T02:54:33.436Z,4.00
2022-10-05T02:57:05.151Z,4.17
2022-10-05T02:59:37.768Z,4.47
2022-10-05T03:02:13.610Z,4.47
2022-10-05T03:04:46.122Z,4.47
2022-10-05T03:07:17.304Z,3.87
2022-10-05T03:09:49.785Z,3.70
2022-10-05T03:12:30.153Z,4.40
2022-10-05T03:15:05.088Z,3.70
2022-10-05T03:17:37.896Z,3.73
2022-10-05T03:20:16.187Z,3.93
2022-10-05T03:22:49.795Z,4.03
2022-10-05T03:25:37.847Z,4.63
2022-10-05T03:28:09.983Z,3.80
2022-10-05T03:30:43.678Z,4.10
2022-10-05T03:33:16.113Z,3.93
2022-10-05T03:35:49.921Z,4.67
2022-10-05T03:38:22.202Z,3.90
2022-10-05T03:40:57.110Z,4.10
2022-10-05T03:43:37.409Z,4.17
2022-10-05T03:46:11.376Z,4.50
2022-10-05T03:48:42.990Z,4.40
2022-10-05T03:51:17.214Z,4.10
2022-10-05T03:53:47.280Z,4.70
2022-10-05T03:56:17.797Z,4.40
2022-10-05T03:58:51.547Z,4.23
2022-10-05T04:01:24.204Z,4.50
2022-10-05T04:03:55.390Z,4.53
2022-10-05T04:06:25.966Z,4.77
2022-10-05T04:08:57.392Z,4.53
2022-10-05T04:11:28.407Z,4.90
2022-10-05T04:14:00.426Z,4.10
2022-10-05T04:16:32.821Z,3.90
2022-10-05T04:19:04.193Z,4.37
2022-10-05T04:21:35.292Z,4.17
2022-10-05T04:24:07.763Z,3.87
2022-10-05T04:26:39.707Z,4.40
2022-10-05T04:29:15.107Z,4.27
2022-10-05T04:31:58.377Z,5.33
2022-10-05T04:34:45.000Z,3.83
2022-10-05T04:37:19.574Z,4.47
2022-10-05T04:39:55.972Z,4.63
2022-10-05T04:42:30.694Z,5.17
2022-10-05T04:45:10.562Z,4.63
2022-10-05T04:48:04.146Z,5.50
2022-10-05T04:50:40.737Z,5.00
2022-10-05T04:53:16.270Z,4.63
2022-10-05T04:55:52.485Z,4.70
2022-10-05T04:58:27.926Z,4.37
2022-10-05T05:01:07.478Z,4.90
2022-10-05T05:03:51.584Z,5.17
2022-10-05T05:06:30.501Z,4.67
2022-10-05T05:09:28.277Z,4.70
2022-10-05T05:12:20.174Z,7.43
2022-10-05T05:15:17.695Z,5.57
2022-10-05T05:17:58.036Z,6.60
2022-10-05T05:20:34.841Z,6.90
2022-10-05T05:23:07.220Z,5.50
2022-10-05T05:25:40.425Z,5.90
2022-10-05T05:28:17.753Z,5.10
2022-10-05T05:30:49.159Z,6.00
2022-10-05T05:33:23.015Z,6.03
2022-10-05T05:36:25.469Z,5.93
2022-10-05T05:39:00.128Z,5.13
2022-10-05T05:41:32.063Z,5.20
2022-10-05T05:44:07.255Z,6.00
2022-10-05T05:47:01.791Z,6.13
2022-10-05T05:49:32.185Z,5.37
2022-10-05T05:52:05.694Z,5.60
2022-10-05T05:54:38.513Z,5.60
2022-10-05T05:57:11.446Z,5.93
2022-10-05T05:59:48.633Z,5.93
2022-10-05T06:02:20.486Z,5.60
2022-10-05T06:04:52.313Z,5.07
2022-10-05T06:07:30.168Z,5.33
2022-10-05T06:10:01.715Z,6.23
2022-10-05T06:12:32.997Z,5.77
2022-10-05T06:15:04.356Z,5.90
2022-10-05T06:17:38.362Z,5.67
2022-10-05T06:20:13.154Z,5.67
2022-10-05T06:22:44.221Z,5.07
2022-10-05T06:25:20.442Z,5.50
2022-10-05T06:28:03.114Z,5.33
2022-10-05T06:30:37.930Z,4.97
2022-10-05T06:33:12.855Z,5.27
2022-10-05T06:35:51.572Z,5.67
2022-10-05T06:38:37.551Z,4.87
2022-10-05T06:41:13.158Z,5.77
2022-10-05T06:43:51.334Z,5.63
2022-10-05T06:46:24.035Z,5.70
2022-10-05T06:49:13.072Z,5.40
2022-10-05T06:51:46.465Z,5.80
2022-10-05T06:54:24.927Z,5.40
2022-10-05T06:56:58.235Z,5.57
2022-10-05T06:59:31.462Z,4.97
2022-10-05T07:02:06.325Z,5.40
2022-10-05T07:04:57.190Z,5.30
2022-10-05T07:07:27.786Z,5.63
2022-10-05T07:10:09.086Z,5.60
2022-10-05T07:12:51.223Z,5.27
2022-10-05T07:15:38.037Z,5.20
2022-10-05T07:18:17.057Z,5.30
2022-10-05T07:20:50.745Z,5.07
2022-10-05T07:23:25.960Z,5.47
2022-10-05T07:26:03.334Z,6.00
2022-10-05T07:28:36.019Z,5.67
2022-10-05T07:31:07.986Z,5.40
2022-10-05T07:33:41.873Z,5.30
2022-10-05T07:36:32.246Z,6.37
2022-10-05T07:39:03.516Z,5.23
2022-10-05T07:41:40.196Z,4.87
2022-10-05T07:44:13.449Z,4.87
2022-10-05T07:46:51.115Z,4.93
2022-10-05T07:49:24.485Z,4.97
2022-10-05T07:51:56.483Z,5.83
2022-10-05T07:54:28.486Z,5.40
2022-10-05T07:57:03.132Z,4.80
2022-10-05T07:59:35.816Z,5.50
2022-10-05T08:02:08.310Z,5.47
2022-10-05T08:04:41.870Z,5.07
2022-10-05T08:07:14.608Z,5.67
2022-10-05T08:09:45.494Z,5.60
2022-10-05T08:12:37.045Z,6.17
2022-10-05T08:15:08.390Z,4.97
2022-10-05T08:17:45.444Z,4.27
2022-10-05T08:20:36.955Z,5.90
2022-10-05T08:23:13.357Z,5.57
2022-10-05T08:25:47.549Z,5.70
2022-10-05T08:28:20.867Z,5.60
2022-10-05T08:30:58.174Z,5.77
2022-10-05T08:33:28.652Z,5.80
2022-10-05T08:36:04.827Z,4.77
2022-10-05T08:38:34.109Z,5.57
2022-10-05T08:41:29.766Z,5.90
2022-10-05T08:44:36.698Z,4.83
2022-10-05T08:47:17.025Z,5.03
2022-10-05T08:50:11.579Z,5.23
2022-10-05T08:52:56.021Z,5.23
2022-10-05T08:55:33.297Z,4.80
2022-10-05T08:58:24.606Z,5.50
2022-10-05T09:00:58.876Z,5.60
2022-10-05T09:03:58.581Z,4.93
2022-10-05T09:07:02.074Z,5.77
2022-10-05T09:09:51.214Z,5.20
2022-10-05T09:13:07.113Z,5.43
2022-10-05T09:15:44.216Z,5.27
2022-10-05T09:18:36.223Z,4.63
2022-10-05T09:21:08.042Z,5.00
2022-10-05T09:23:39.668Z,5.40
2022-10-05T09:26:10.367Z,4.67
2022-10-05T09:28:51.886Z,4.63
2022-10-05T09:31:29.440Z,4.90
2022-10-05T09:34:30.591Z,5.13
2022-10-05T09:37:28.833Z,4.67
2022-10-05T09:40:29.057Z,4.63
2022-10-05T09:43:34.895Z,4.57
2022-10-05T09:46:26.193Z,4.43
2022-10-05T09:49:11.640Z,4.63
2022-10-05T09:52:06.974Z,4.50
2022-10-05T09:54:52.353Z,5.37
2022-10-05T09:57:53.090Z,4.47
2022-10-05T10:00:26.518Z,4.03
2022-10-05T10:03:33.270Z,4.67
2022-10-05T10:06:35.136Z,4.57
2022-10-05T10:09:14.952Z,5.07
2022-10-05T10:12:15.224Z,4.80
2022-10-05T10:15:38.042Z,4.50
2022-10-05T10:18:15.577Z,4.60
2022-10-05T10:21:00.328Z,4.60
2022-10-05T10:23:42.862Z,4.57
2022-10-05T10:26:40.681Z,3.87
2022-10-05T10:29:50.053Z,5.07
2022-10-05T10:32:44.198Z,3.73
2022-10-05T10:35:32.159Z,4.37
2022-10-05T10:38:31.069Z,4.53
2022-10-05T10:41:25.458Z,4.37
2022-10-05T10:44:11.135Z,4.73
2022-10-05T10:46:46.281Z,5.10
2022-10-05T10:49:26.541Z,4.37
2022-10-05T10:52:11.714Z,4.70
2022-10-05T10:55:00.430Z,4.30
2022-10-05T10:57:38.282Z,4.00
2022-10-05T11:00:25.235Z,3.80
2022-10-05T11:03:09.083Z,4.10
2022-10-05T11:05:53.970Z,3.87
2022-10-05T11:08:47.473Z,4.10
2022-10-05T11:11:27.175Z,3.60
2022-10-05T11:14:21.341Z,3.47
2022-10-05T11:17:08.181Z,3.50
2022-10-05T11:20:04.060Z,3.40
2022-10-05T11:22:43.074Z,3.50
2022-10-05T11:25:52.093Z,3.30
2022-10-05T11:28:39.725Z,3.10
2022-10-05T11:31:45.976Z,3.43
2022-10-05T11:34:45.582Z,3.20
2022-10-05T11:37:41.026Z,2.87
2022-10-05T11:40:35.018Z,3.30
2022-10-05T11:43:28.700Z,3.80
2022-10-05T11:46:07.689Z,3.10
2022-10-05T11:48:53.395Z,3.10
2022-10-05T11:51:30.264Z,2.83
2022-10-05T11:54:08.011Z,3.57
2022-10-05T11:56:37.402Z,2.90
2022-10-05T11:59:13.355Z,2.90
2022-10-05T12:01:46.974Z,2.80
2022-10-05T12:04:20.137Z,2.67
2022-10-05T12:07:02.954Z,2.67
2022-10-05T12:10:05.683Z,2.90
2022-10-05T12:12:37.770Z,2.63
2022-10-05T12:15:13.745Z,3.10
2022-10-05T12:17:45.216Z,2.50
2022-10-05T12:20:18.597Z,2.80
2022-10-05T12:22:49.422Z,2.70
2022-10-05T12:25:22.718Z,2.37
2022-10-05T12:27:53.545Z,2.80
2022-10-05T12:30:27.700Z,2.27
2022-10-05T12:33:02.345Z,2.17
2022-10-05T12:35:48.047Z,2.60
2022-10-05T12:38:23.064Z,3.00
2022-10-05T12:40:54.684Z,2.87
2022-10-05T12:43:26.910Z,2.30
2022-10-05T12:46:02.181Z,2.70
2022-10-05T12:48:40.106Z,2.70
2022-10-05T12:51:13.492Z,2.67
2022-10-05T12:53:50.514Z,2.93
2022-10-05T12:56:25.449Z,2.80
2022-10-05T12:58:57.458Z,2.67
2022-10-05T13:01:35.206Z,2.47
2022-10-05T13:04:18.448Z,2.57
2022-10-05T13:06:59.186Z,2.40
2022-10-05T13:09:35.217Z,2.77
2022-10-05T13:12:07.625Z,2.63
2022-10-05T13:14:50.519Z,2.67
2022-10-05T13:17:22.989Z,2.90
2022-10-05T13:19:57.119Z,2.67
2022-10-05T13:22:35.523Z,2.53
2022-10-05T13:25:22.045Z,2.50
2022-10-05T13:27:54.875Z,2.77
2022-10-05T13:30:23.444Z,2.43
2022-10-05T13:32:55.908Z,2.30
2022-10-05T13:35:33.995Z,2.70
2022-10-05T13:38:11.211Z,2.97
2022-10-05T13:40:43.432Z,2.80
2022-10-05T13:43:20.203Z,2.60
2022-10-05T13:45:55.719Z,3.10
2022-10-05T13:48:44.211Z,2.20
2022-10-05T13:51:17.107Z,2.40
2022-10-05T13:53:49.528Z,2.90
2022-10-05T13:56:22.103Z,2.10
2022-10-05T13:58:54.244Z,2.33
2022-10-05T14:01:36.100Z,2.50
2022-10-05T14:04:11.865Z,2.33
2022-10-05T14:06:40.289Z,2.40
2022-10-05T14:09:14.768Z,2.57
2022-10-05T14:11:49.738Z,2.50
2022-10-05T14:14:25.373Z,2.13
2022-10-05T14:16:54.802Z,2.20
2022-10-05T14:19:27.991Z,2.10
2022-10-05T14:22:01.187Z,2.07
2022-10-05T14:24:43.661Z,2.40
2022-10-05T14:27:21.199Z,2.50
2022-10-05T14:29:57.001Z,2.20
2022-10-05T14:32:27.122Z,2.10
2022-10-05T14:35:05.108Z,2.20
2022-10-05T14:37:43.265Z,2.20
2022-10-05T14:40:28.747Z,2.63
2022-10-05T14:42:57.368Z,2.17
2022-10-05T14:45:26.812Z,2.00
2022-10-05T14:48:00.199Z,2.33
2022-10-05T14:50:29.782Z,2.20
2022-10-05T14:53:16.678Z,2.40
2022-10-05T14:55:58.133Z,2.43
2022-10-05T14:58:46.976Z,2.00
2022-10-05T15:01:18.897Z,2.20
2022-10-05T15:03:57.946Z,2.03
2022-10-05T15:06:31.161Z,2.30
2022-10-05T15:09:30.249Z,2.27
2022-10-05T15:12:01.616Z,2.00
2022-10-05T15:14:32.501Z,2.37
2022-10-05T15:17:03.580Z,2.20
2022-10-05T15:19:42.205Z,2.30
2022-10-05T15:22:20.146Z,2.33
2022-10-05T15:24:57.812Z,2.10
2022-10-05T15:27:35.857Z,2.03
2022-10-05T15:30:11.339Z,2.17
2022-10-05T15:32:50.020Z,2.40
2022-10-05T15:35:50.195Z,2.17
2022-10-05T15:38:22.045Z,2.50
2022-10-05T15:40:59.650Z,2.10
2022-10-05T15:43:46.605Z,2.13
2022-10-05T15:46:19.095Z,4.70
2022-10-05T15:48:53.355Z,9.47
2022-10-05T15:51:43.606Z,2.90
2022-10-05T15:54:31.915Z,2.23
2022-10-05T15:57:03.578Z,2.10
2022-10-05T15:59:38.657Z,2.43
2022-10-05T16:02:16.037Z,2.00
2022-10-05T16:04:49.107Z,1.93
2022-10-05T16:07:39.283Z,2.40
2022-10-05T16:10:14.879Z,2.10
2022-10-05T16:12:48.782Z,2.13
2022-10-05T16:15:26.338Z,1.87
2022-10-05T16:18:18.269Z,2.20
2022-10-05T16:20:51.136Z,2.00
2022-10-05T16:23:27.674Z,2.30
2022-10-05T16:26:05.868Z,2.30
2022-10-05T16:28:40.967Z,2.57
2022-10-05T16:31:17.863Z,2.07
2022-10-05T16:33:56.384Z,1.80
2022-10-05T16:36:33.550Z,2.20
2022-10-05T16:39:05.174Z,2.20
2022-10-05T16:41:37.311Z,2.13
2022-10-05T16:44:11.405Z,1.97
2022-10-05T16:46:46.944Z,2.00
2022-10-05T16:49:22.314Z,1.60
2022-10-05T16:51:59.083Z,2.27
2022-10-05T16:54:31.620Z,2.20
2022-10-05T16:57:03.819Z,2.17
2022-10-05T16:59:49.506Z,2.60
2022-10-05T17:02:40.847Z,2.30
2022-10-05T17:05:20.122Z,2.00
2022-10-05T17:08:03.772Z,2.10
2022-10-05T17:10:46.721Z,2.17
2022-10-05T17:13:32.548Z,2.37
2022-10-05T17:16:05.799Z,2.03
2022-10-05T17:19:02.244Z,2.17
2022-10-05T17:21:34.788Z,2.00
2022-10-05T17:24:14.633Z,1.90
2022-10-05T17:26:57.803Z,2.37
2022-10-05T17:29:30.881Z,2.00
2022-10-05T17:32:12.811Z,2.10
2022-10-05T17:35:18.236Z,2.70
2022-10-05T17:38:09.321Z,2.27
2022-10-05T17:40:38.947Z,1.93
2022-10-05T17:43:25.363Z,2.03
2022-10-05T17:45:56.834Z,1.90
2022-10-05T17:48:44.135Z,2.23
2022-10-05T17:51:37.054Z,2.77
2022-10-05T17:54:40.639Z,2.57
2022-10-05T17:57:19.402Z,2.03
2022-10-05T17:59:52.465Z,2.00
2022-10-05T18:02:23.159Z,2.50
2022-10-05T18:04:52.535Z,2.13
2022-10-05T18:07:23.810Z,2.13
2022-10-05T18:10:00.008Z,2.00
2022-10-05T18:12:39.983Z,2.20
2022-10-05T18:15:34.097Z,2.13
2022-10-05T18:18:35.754Z,2.27
2022-10-05T18:21:15.602Z,2.10
2022-10-05T18:23:49.059Z,2.40
2022-10-05T18:26:26.574Z,2.00
2022-10-05T18:29:13.946Z,2.10
2022-10-05T18:31:50.021Z,9.00
2022-10-05T18:34:27.549Z,4.03
2022-10-05T18:37:21.322Z,2.00
2022-10-05T18:40:03.489Z,1.90
2022-10-05T18:42:37.652Z,2.20
2022-10-05T18:45:20.576Z,2.07
2022-10-05T18:47:56.232Z,2.20
2022-10-05T18:50:28.263Z,1.93
2022-10-05T18:53:13.387Z,1.87
2022-10-05T18:55:46.938Z,2.23
2022-10-05T18:58:22.260Z,1.77
2022-10-05T19:01:19.203Z,2.10
2022-10-05T19:03:56.278Z,1.97
2022-10-05T19:06:27.635Z,1.97
2022-10-05T19:09:05.674Z,2.30
2022-10-05T19:11:40.900Z,2.13
2022-10-05T19:14:26.524Z,3.30
2022-10-05T19:17:01.662Z,3.40
2022-10-05T19:19:49.488Z,3.10
2022-10-05T19:22:26.045Z,2.27
2022-10-05T19:25:14.459Z,2.10
2022-10-05T19:27:55.173Z,2.07
2022-10-05T19:30:25.259Z,1.80
2022-10-05T19:33:15.121Z,2.13
2022-10-05T19:35:53.657Z,1.90
2022-10-05T19:38:28.961Z,1.70
2022-10-05T19:41:02.648Z,1.70
2022-10-05T19:43:50.407Z,2.00
2022-10-05T19:46:25.029Z,1.80
2022-10-05T19:48:54.869Z,2.10
2022-10-05T19:51:29.374Z,1.90
2022-10-05T19:53:59.094Z,2.37
2022-10-05T19:56:30.977Z,1.97
2022-10-05T19:59:13.199Z,1.53
2022-10-05T20:01:44.373Z,2.10
2022-10-05T20:04:12.297Z,1.67
2022-10-05T20:06:40.607Z,1.93
2022-10-05T20:09:20.478Z,1.90
2022-10-05T20:11:52.158Z,1.90
2022-10-05T20:14:22.339Z,1.50
2022-10-05T20:17:35.072Z,2.03
2022-10-05T20:20:31.422Z,1.80
2022-10-05T20:23:21.253Z,2.13
2022-10-05T20:26:09.818Z,2.17
2022-10-05T20:28:37.855Z,1.90
2022-10-05T20:31:08.808Z,1.90
2022-10-05T20:33:36.797Z,1.80
2022-10-05T20:36:05.727Z,2.07
2022-10-05T20:38:40.053Z,1.70
2022-10-05T20:41:08.996Z,1.90
2022-10-05T20:43:39.054Z,2.50
2022-10-05T20:46:08.659Z,1.90
2022-10-05T20:48:36.634Z,1.60
2022-10-05T20:51:04.551Z,2.27
2022-10-05T20:53:32.849Z,1.83
2022-10-05T20:56:02.494Z,1.83
2022-10-05T20:58:30.819Z,1.90
2022-10-05T21:01:19.672Z,2.10
2022-10-05T21:03:49.691Z,2.10
2022-10-05T21:06:18.033Z,2.77
2022-10-05T21:08:46.382Z,2.40
2022-10-05T21:11:14.645Z,2.20
2022-10-05T21:13:44.757Z,2.30
2022-10-05T21:16:13.542Z,2.00
2022-10-05T21:18:41.534Z,1.80
2022-10-05T21:21:10.812Z,1.93
2022-10-05T21:23:38.707Z,1.67
2022-10-05T21:26:07.399Z,1.60
2022-10-05T21:28:35.459Z,2.07
2022-10-05T21:31:03.423Z,1.73
2022-10-05T21:33:31.681Z,1.73
2022-10-05T21:35:59.953Z,1.73
2022-10-05T21:38:29.964Z,1.57
2022-10-05T21:40:58.397Z,1.20
2022-10-05T21:43:26.735Z,1.60
2022-10-05T21:45:55.820Z,1.57
2022-10-05T21:48:23.959Z,1.40
2022-10-05T21:50:51.889Z,1.33
2022-10-05T21:53:22.785Z,1.50
2022-10-05T21:55:52.713Z,1.37
2022-10-05T21:58:22.111Z,1.57
2022-10-05T22:00:50.375Z,1.37
2022-10-05T22:03:18.282Z,1.33
2022-10-05T22:05:46.292Z,1.30
2022-10-05T22:08:21.129Z,1.17
2022-10-05T22:10:49.951Z,1.30
2022-10-05T22:13:19.212Z,1.40
2022-10-05T22:15:47.189Z,1.40
2022-10-05T22:18:18.509Z,1.50
2022-10-05T22:20:46.862Z,1.20
2022-10-05T22:23:14.839Z,1.43
2022-10-05T22:25:43.614Z,1.60
2022-10-05T22:28:13.381Z,1.20
2022-10-05T22:30:44.448Z,1.50
2022-10-05T22:33:12.370Z,1.43
2022-10-05T22:35:40.695Z,1.70
2022-10-05T22:38:08.601Z,1.20
2022-10-05T22:40:37.523Z,1.07
2022-10-05T22:43:05.409Z,0.90
2022-10-05T22:45:33.357Z,0.80
2022-10-05T22:48:03.784Z,0.90
2022-10-05T22:50:31.722Z,1.00
2022-10-05T22:52:59.642Z,0.60
2022-10-05T22:55:27.582Z,0.80
2022-10-05T22:57:55.495Z,0.80
2022-10-05T23:00:35.221Z,0.83
2022-10-05T23:03:12.898Z,1.10
2022-10-05T23:05:41.024Z,0.70
2022-10-05T23:08:09.044Z,0.70
2022-10-05T23:10:36.946Z,0.80
2022-10-05T23:13:05.067Z,0.67
2022-10-05T23:15:33.626Z,0.90
2022-10-05T23:18:01.636Z,0.83
2022-10-05T23:20:30.884Z,0.70
2022-10-05T23:23:00.433Z,0.80
2022-10-05T23:25:28.340Z,0.50
2022-10-05T23:27:56.347Z,0.80
2022-10-05T23:30:24.261Z,0.80
2022-10-05T23:32:52.403Z,0.60
2022-10-05T23:35:20.270Z,0.63
2022-10-05T23:37:49.592Z,0.60
2022-10-05T23:40:17.758Z,0.60
2022-10-05T23:42:45.994Z,0.60
2022-10-05T23:45:14.234Z,0.60
2022-10-05T23:47:42.427Z,0.77
2022-10-05T23:50:10.865Z,0.50
2022-10-05T23:52:39.102Z,0.60
2022-10-05T23:55:09.064Z,0.40
2022-10-05T23:57:38.304Z,0.50
